sensor_id;sensor_type;location;lat;lon;timestamp;pressure;altitude;pressure_sealevel;temperature;humidity
78411;BME280;67706;51.074;-1.796;2023-03-04T00:00:56;102611.44;;;5.17;60.59
78411;BME280;67706;51.074;-1.796;2023-03-04T00:03:23;102609.06;;;5.12;60.94
78411;BME280;67706;51.074;-1.796;2023-03-04T00:05:50;102613.91;;;5.20;60.43
78411;BME280;67706;51.074;-1.796;2023-03-04T00:08:16;102607.72;;;5.18;60.13
78411;BME280;67706;51.074;-1.796;2023-03-04T00:10:43;102609.06;;;5.12;60.24
78411;BME280;67706;51.074;-1.796;2023-03-04T00:13:10;102617.38;;;5.22;59.42
78411;BME280;67706;51.074;-1.796;2023-03-04T00:15:37;102607.72;;;5.18;60.05
78411;BME280;67706;51.074;-1.796;2023-03-04T00:18:05;102610.59;;;5.27;59.69
78411;BME280;67706;51.074;-1.796;2023-03-04T00:20:32;102611.19;;;5.20;59.81
78411;BME280;67706;51.074;-1.796;2023-03-04T00:22:58;102610.69;;;5.15;59.71
78411;BME280;67706;51.074;-1.796;2023-03-04T00:25:25;102621.56;;;5.15;59.49
78411;BME280;67706;51.074;-1.796;2023-03-04T00:27:52;102611.94;;;5.22;60.01
78411;BME280;67706;51.074;-1.796;2023-03-04T00:30:19;102621.09;;;5.21;59.14
78411;BME280;67706;51.074;-1.796;2023-03-04T00:32:45;102628.25;;;5.22;59.44
78411;BME280;67706;51.074;-1.796;2023-03-04T00:35:14;102630.97;;;5.22;59.56
78411;BME280;67706;51.074;-1.796;2023-03-04T00:37:41;102624.06;;;5.29;59.04
78411;BME280;67706;51.074;-1.796;2023-03-04T00:40:09;102623.56;;;5.24;58.65
78411;BME280;67706;51.074;-1.796;2023-03-04T00:42:36;102619.47;;;5.18;59.29
78411;BME280;67706;51.074;-1.796;2023-03-04T00:45:04;102626.66;;;5.19;59.36
78411;BME280;67706;51.074;-1.796;2023-03-04T00:47:31;102619.47;;;5.18;59.88
78411;BME280;67706;51.074;-1.796;2023-03-04T00:49:58;102627.50;;;5.20;59.69
78411;BME280;67706;51.074;-1.796;2023-03-04T00:52:26;102623.81;;;5.21;59.36
78411;BME280;67706;51.074;-1.796;2023-03-04T00:54:53;102621.56;;;5.15;60.32
78411;BME280;67706;51.074;-1.796;2023-03-04T00:57:20;102625.03;;;5.17;60.34
78411;BME280;67706;51.074;-1.796;2023-03-04T00:59:47;102623.06;;;5.19;60.45
78411;BME280;67706;51.074;-1.796;2023-03-04T01:02:14;102624.56;;;5.23;60.52
78411;BME280;67706;51.074;-1.796;2023-03-04T01:04:41;102623.19;;;5.17;60.51
78411;BME280;67706;51.074;-1.796;2023-03-04T01:07:08;102623.56;;;5.24;60.21
78411;BME280;67706;51.074;-1.796;2023-03-04T01:09:36;102628.25;;;5.22;60.51
78411;BME280;67706;51.074;-1.796;2023-03-04T01:12:03;102620.72;;;5.25;60.40
78411;BME280;67706;51.074;-1.796;2023-03-04T01:14:30;102621.97;;;5.21;60.88
78411;BME280;67706;51.074;-1.796;2023-03-04T01:16:57;102616.63;;;5.20;60.76
78411;BME280;67706;51.074;-1.796;2023-03-04T01:19:24;102631.84;;;5.22;61.24
78411;BME280;67706;51.074;-1.796;2023-03-04T01:21:51;102623.31;;;5.27;60.84
78411;BME280;67706;51.074;-1.796;2023-03-04T01:24:18;102622.06;;;5.20;60.83
78411;BME280;67706;51.074;-1.796;2023-03-04T01:26:47;102620.56;;;5.16;61.36
78411;BME280;67706;51.074;-1.796;2023-03-04T01:29:13;102622.81;;;5.11;61.34
78411;BME280;67706;51.074;-1.796;2023-03-04T01:31:40;102613.63;;;5.12;61.66
78411;BME280;67706;51.074;-1.796;2023-03-04T01:34:07;102619.25;;;5.21;61.59
78411;BME280;67706;51.074;-1.796;2023-03-04T01:36:35;102615.00;;;5.06;61.79
78411;BME280;67706;51.074;-1.796;2023-03-04T01:39:02;102616.63;;;5.09;62.09
78411;BME280;67706;51.074;-1.796;2023-03-04T01:41:29;102614.75;;;5.09;62.34
78411;BME280;67706;51.074;-1.796;2023-03-04T01:43:59;102609.69;;;5.16;61.96
78411;BME280;67706;51.074;-1.796;2023-03-04T01:46:27;102610.53;;;5.05;62.56
78411;BME280;67706;51.074;-1.796;2023-03-04T01:48:54;102604.13;;;5.06;62.12
78411;BME280;67706;51.074;-1.796;2023-03-04T01:51:21;102603.00;;;5.09;62.12
78411;BME280;67706;51.074;-1.796;2023-03-04T01:53:49;102599.06;;;5.13;61.90
78411;BME280;67706;51.074;-1.796;2023-03-04T01:56:22;102584.72;;;5.11;61.05
78411;BME280;67706;51.074;-1.796;2023-03-04T01:59:10;102590.66;;;5.16;61.27
78411;BME280;67706;51.074;-1.796;2023-03-04T02:01:38;102589.41;;;5.09;61.33
78411;BME280;67706;51.074;-1.796;2023-03-04T02:04:06;102585.81;;;5.08;61.76
78411;BME280;67706;51.074;-1.796;2023-03-04T02:06:33;102588.19;;;5.13;61.34
78411;BME280;67706;51.074;-1.796;2023-03-04T02:09:01;102583.34;;;5.16;61.36
78411;BME280;67706;51.074;-1.796;2023-03-04T02:11:29;102579.28;;;5.11;61.64
78411;BME280;67706;51.074;-1.796;2023-03-04T02:13:56;102571.59;;;5.05;61.93
78411;BME280;67706;51.074;-1.796;2023-03-04T02:16:25;102584.72;;;5.11;62.13
78411;BME280;67706;51.074;-1.796;2023-03-04T02:18:53;102578.53;;;5.20;61.41
78411;BME280;67706;51.074;-1.796;2023-03-04T02:21:22;102574.81;;;5.10;61.99
78411;BME280;67706;51.074;-1.796;2023-03-04T02:23:57;102575.31;;;5.15;62.09
78411;BME280;67706;51.074;-1.796;2023-03-04T02:26:30;102573.56;;;5.14;62.25
78411;BME280;67706;51.074;-1.796;2023-03-04T02:28:59;102574.06;;;5.08;61.43
78411;BME280;67706;51.074;-1.796;2023-03-04T02:31:29;102570.13;;;5.12;61.63
78411;BME280;67706;51.074;-1.796;2023-03-04T02:33:58;102572.34;;;5.07;62.38
78411;BME280;67706;51.074;-1.796;2023-03-04T02:36:26;102574.31;;;5.05;62.58
78411;BME280;67706;51.074;-1.796;2023-03-04T02:38:54;102568.50;;;5.09;62.36
78411;BME280;67706;51.074;-1.796;2023-03-04T02:41:23;102569.63;;;5.07;62.50
78411;BME280;67706;51.074;-1.796;2023-03-04T02:43:53;102568.00;;;5.04;63.08
78411;BME280;67706;51.074;-1.796;2023-03-04T02:46:20;102566.53;;;5.00;62.92
78411;BME280;67706;51.074;-1.796;2023-03-04T02:48:48;102564.19;;;5.07;62.52
78411;BME280;67706;51.074;-1.796;2023-03-04T02:51:15;102568.50;;;4.98;62.84
78411;BME280;67706;51.074;-1.796;2023-03-04T02:53:42;102571.78;;;4.91;63.12
78411;BME280;67706;51.074;-1.796;2023-03-04T02:56:08;102573.94;;;4.98;63.05
78411;BME280;67706;51.074;-1.796;2023-03-04T02:58:35;102575.53;;;5.01;63.20
78411;BME280;67706;51.074;-1.796;2023-03-04T03:01:04;102571.88;;;5.13;62.73
78411;BME280;67706;51.074;-1.796;2023-03-04T03:03:31;102573.69;;;5.01;62.99
78411;BME280;67706;51.074;-1.796;2023-03-04T03:05:58;102576.13;;;4.93;63.30
78411;BME280;67706;51.074;-1.796;2023-03-04T03:08:25;102569.59;;;4.96;63.30
78411;BME280;67706;51.074;-1.796;2023-03-04T03:10:51;102577.47;;;4.88;63.37
78411;BME280;67706;51.074;-1.796;2023-03-04T03:13:18;102574.03;;;4.86;63.32
78411;BME280;67706;51.074;-1.796;2023-03-04T03:15:45;102570.28;;;4.87;62.82
78411;BME280;67706;51.074;-1.796;2023-03-04T03:18:13;102578.22;;;4.90;62.42
78411;BME280;67706;51.074;-1.796;2023-03-04T03:20:39;102569.19;;;4.89;62.30
78411;BME280;67706;51.074;-1.796;2023-03-04T03:23:07;102571.56;;;4.94;62.82
78411;BME280;67706;51.074;-1.796;2023-03-04T03:25:33;102570.56;;;4.95;62.67
78411;BME280;67706;51.074;-1.796;2023-03-04T03:28:00;102561.91;;;4.90;62.29
78411;BME280;67706;51.074;-1.796;2023-03-04T03:30:27;102570.97;;;5.01;61.88
78411;BME280;67706;51.074;-1.796;2023-03-04T03:32:54;102561.09;;;5.00;61.86
78411;BME280;67706;51.074;-1.796;2023-03-04T03:35:22;102569.19;;;4.89;62.47
78411;BME280;67706;51.074;-1.796;2023-03-04T03:37:49;102572.28;;;4.84;62.69
78411;BME280;67706;51.074;-1.796;2023-03-04T03:40:16;102569.59;;;4.96;62.56
78411;BME280;67706;51.074;-1.796;2023-03-04T03:42:43;102572.53;;;4.93;62.64
78411;BME280;67706;51.074;-1.796;2023-03-04T03:45:10;102573.00;;;4.87;62.99
78411;BME280;67706;51.074;-1.796;2023-03-04T03:47:37;102568.59;;;4.86;63.09
78411;BME280;67706;51.074;-1.796;2023-03-04T03:50:04;102566.84;;;4.84;63.27
78411;BME280;67706;51.074;-1.796;2023-03-04T03:52:32;102575.50;;;4.90;63.17
78411;BME280;67706;51.074;-1.796;2023-03-04T03:54:59;102569.28;;;4.76;63.27
78411;BME280;67706;51.074;-1.796;2023-03-04T03:57:27;102570.81;;;4.92;63.12
78411;BME280;67706;51.074;-1.796;2023-03-04T03:59:54;102570.03;;;4.78;62.93
78411;BME280;67706;51.074;-1.796;2023-03-04T04:02:20;102569.56;;;4.84;63.20
78411;BME280;67706;51.074;-1.796;2023-03-04T04:04:47;102568.53;;;4.74;63.08
78411;BME280;67706;51.074;-1.796;2023-03-04T04:07:14;102571.03;;;4.77;63.25
78411;BME280;67706;51.074;-1.796;2023-03-04T04:09:42;102565.13;;;4.83;62.95
78411;BME280;67706;51.074;-1.796;2023-03-04T04:12:10;102568.19;;;4.79;63.43
78411;BME280;67706;51.074;-1.796;2023-03-04T04:14:39;102572.78;;;4.90;63.13
78411;BME280;67706;51.074;-1.796;2023-03-04T04:17:06;102565.97;;;4.84;63.45
78411;BME280;67706;51.074;-1.796;2023-03-04T04:19:33;102577.44;;;4.76;63.47
78411;BME280;67706;51.074;-1.796;2023-03-04T04:22:00;102578.06;;;4.80;63.81
78411;BME280;67706;51.074;-1.796;2023-03-04T04:24:26;102584.63;;;4.77;64.15
78411;BME280;67706;51.074;-1.796;2023-03-04T04:26:54;102590.06;;;4.77;63.54
78411;BME280;67706;51.074;-1.796;2023-03-04T04:29:21;102584.03;;;4.85;63.24
78411;BME280;67706;51.074;-1.796;2023-03-04T04:31:48;102577.84;;;4.83;63.18
78411;BME280;67706;51.074;-1.796;2023-03-04T04:34:15;102574.50;;;4.79;63.17
78411;BME280;67706;51.074;-1.796;2023-03-04T04:36:41;102580.19;;;4.88;63.07
78411;BME280;67706;51.074;-1.796;2023-03-04T04:39:08;102589.19;;;4.88;63.18
78411;BME280;67706;51.074;-1.796;2023-03-04T04:41:37;102581.03;;;4.77;63.71
78411;BME280;67706;51.074;-1.796;2023-03-04T04:44:06;102591.31;;;4.84;63.60
78411;BME280;67706;51.074;-1.796;2023-03-04T04:46:33;102592.78;;;4.77;63.39
78411;BME280;67706;51.074;-1.796;2023-03-04T04:49:00;102600.88;;;4.66;63.88
78411;BME280;67706;51.074;-1.796;2023-03-04T04:51:27;102594.72;;;4.75;63.43
78411;BME280;67706;51.074;-1.796;2023-03-04T04:53:54;102599.72;;;4.81;63.41
78411;BME280;67706;51.074;-1.796;2023-03-04T04:56:23;102596.47;;;4.76;63.59
78411;BME280;67706;51.074;-1.796;2023-03-04T04:58:51;102596.25;;;4.79;63.83
78411;BME280;67706;51.074;-1.796;2023-03-04T05:01:19;102595.59;;;4.76;63.91
78411;BME280;67706;51.074;-1.796;2023-03-04T05:03:46;102591.25;;;4.73;64.15
78411;BME280;67706;51.074;-1.796;2023-03-04T05:06:14;102596.81;;;4.72;64.49
78411;BME280;67706;51.074;-1.796;2023-03-04T05:08:41;102598.03;;;4.68;64.90
78411;BME280;67706;51.074;-1.796;2023-03-04T05:11:07;102604.34;;;4.68;65.02
78411;BME280;67706;51.074;-1.796;2023-03-04T05:13:34;102600.63;;;4.69;64.81
78411;BME280;67706;51.074;-1.796;2023-03-04T05:16:00;102605.44;;;4.66;65.15
78411;BME280;67706;51.074;-1.796;2023-03-04T05:18:29;102591.50;;;4.70;65.15
78411;BME280;67706;51.074;-1.796;2023-03-04T05:20:57;102598.28;;;4.65;65.35
78411;BME280;67706;51.074;-1.796;2023-03-04T05:23:25;102597.41;;;4.64;65.25
78411;BME280;67706;51.074;-1.796;2023-03-04T05:25:53;102595.91;;;4.60;64.59
78411;BME280;67706;51.074;-1.796;2023-03-04T05:28:19;102600.63;;;4.69;64.73
78411;BME280;67706;51.074;-1.796;2023-03-04T05:30:46;102602.59;;;4.67;65.13
78411;BME280;67706;51.074;-1.796;2023-03-04T05:33:14;102616.66;;;4.61;65.20
78411;BME280;67706;51.074;-1.796;2023-03-04T05:35:43;102609.22;;;4.52;65.36
78411;BME280;67706;51.074;-1.796;2023-03-04T05:38:12;102596.38;;;4.54;65.10
78411;BME280;67706;51.074;-1.796;2023-03-04T05:40:40;102597.63;;;4.61;64.64
78411;BME280;67706;51.074;-1.796;2023-03-04T05:43:07;102600.69;;;4.57;65.01
78411;BME280;67706;51.074;-1.796;2023-03-04T05:45:35;102599.47;;;4.61;64.88
78411;BME280;67706;51.074;-1.796;2023-03-04T05:48:02;102591.69;;;4.56;64.93
78411;BME280;67706;51.074;-1.796;2023-03-04T05:50:30;102600.81;;;4.55;65.34
78411;BME280;67706;51.074;-1.796;2023-03-04T05:52:58;102588.44;;;4.51;65.29
78411;BME280;67706;51.074;-1.796;2023-03-04T05:55:25;102590.28;;;4.51;65.44
78411;BME280;67706;51.074;-1.796;2023-03-04T05:57:54;102594.84;;;4.50;65.53
78411;BME280;67706;51.074;-1.796;2023-03-04T06:00:21;102596.00;;;4.59;65.01
78411;BME280;67706;51.074;-1.796;2023-03-04T06:02:47;102598.16;;;4.66;64.89
78411;BME280;67706;51.074;-1.796;2023-03-04T06:05:14;102603.53;;;4.55;64.85
78411;BME280;67706;51.074;-1.796;2023-03-04T06:07:41;102605.63;;;4.52;64.77
78411;BME280;67706;51.074;-1.796;2023-03-04T06:10:11;102611.94;;;4.52;64.46
78411;BME280;67706;51.074;-1.796;2023-03-04T06:12:39;102610.41;;;4.48;64.67
78411;BME280;67706;51.074;-1.796;2023-03-04T06:15:07;102610.41;;;4.48;64.91
78411;BME280;67706;51.074;-1.796;2023-03-04T06:17:35;102613.88;;;4.50;65.08
78411;BME280;67706;51.074;-1.796;2023-03-04T06:20:02;102621.88;;;4.64;64.29
78411;BME280;67706;51.074;-1.796;2023-03-04T06:22:30;102621.69;;;4.55;64.19
78411;BME280;67706;51.074;-1.796;2023-03-04T06:24:57;102617.47;;;4.51;64.47
78411;BME280;67706;51.074;-1.796;2023-03-04T06:27:25;102613.88;;;4.50;64.63
78411;BME280;67706;51.074;-1.796;2023-03-04T06:29:52;102617.88;;;4.57;64.45
78411;BME280;67706;51.074;-1.796;2023-03-04T06:32:19;102615.75;;;4.50;64.42
78411;BME280;67706;51.074;-1.796;2023-03-04T06:34:45;102616.59;;;4.50;64.53
78411;BME280;67706;51.074;-1.796;2023-03-04T06:37:12;102609.16;;;4.41;64.68
78411;BME280;67706;51.074;-1.796;2023-03-04T06:39:39;102613.84;;;4.39;65.12
78411;BME280;67706;51.074;-1.796;2023-03-04T06:42:05;102624.47;;;4.42;64.90
78411;BME280;67706;51.074;-1.796;2023-03-04T06:44:33;102607.94;;;4.45;64.68
78411;BME280;67706;51.074;-1.796;2023-03-04T06:47:00;102623.78;;;4.51;64.81
78411;BME280;67706;51.074;-1.796;2023-03-04T06:49:27;102624.88;;;4.49;65.24
78411;BME280;67706;51.074;-1.796;2023-03-04T06:51:53;102629.13;;;4.40;65.33
78411;BME280;67706;51.074;-1.796;2023-03-04T06:54:20;102627.59;;;4.49;64.92
78411;BME280;67706;51.074;-1.796;2023-03-04T06:56:47;102629.44;;;4.48;64.64
78411;BME280;67706;51.074;-1.796;2023-03-04T06:59:14;102627.75;;;4.35;64.96
78411;BME280;67706;51.074;-1.796;2023-03-04T07:01:42;102634.47;;;4.42;65.00
78411;BME280;67706;51.074;-1.796;2023-03-04T07:04:10;102642.94;;;4.50;64.58
78411;BME280;67706;51.074;-1.796;2023-03-04T07:06:38;102645.72;;;4.48;64.60
78411;BME280;67706;51.074;-1.796;2023-03-04T07:09:05;102645.50;;;4.51;64.62
78411;BME280;67706;51.074;-1.796;2023-03-04T07:11:32;102647.03;;;4.55;64.39
78411;BME280;67706;51.074;-1.796;2023-03-04T07:13:58;102652.78;;;4.51;64.77
78411;BME280;67706;51.074;-1.796;2023-03-04T07:16:25;102647.19;;;4.41;65.44
78411;BME280;67706;51.074;-1.796;2023-03-04T07:18:53;102651.06;;;4.50;65.29
78411;BME280;67706;51.074;-1.796;2023-03-04T07:21:20;102648.78;;;4.56;64.83
78411;BME280;67706;51.074;-1.796;2023-03-04T07:23:47;102650.94;;;4.51;65.10
78411;BME280;67706;51.074;-1.796;2023-03-04T07:26:14;102649.00;;;4.53;65.13
78411;BME280;67706;51.074;-1.796;2023-03-04T07:28:41;102647.03;;;4.55;64.50
78411;BME280;67706;51.074;-1.796;2023-03-04T07:31:12;102659.41;;;4.59;64.52
78411;BME280;67706;51.074;-1.796;2023-03-04T07:33:39;102647.56;;;4.60;64.31
78411;BME280;67706;51.074;-1.796;2023-03-04T07:36:07;102650.94;;;4.51;64.91
78411;BME280;67706;51.074;-1.796;2023-03-04T07:38:34;102643.38;;;4.44;64.71
78411;BME280;67706;51.074;-1.796;2023-03-04T07:41:00;102655.16;;;4.55;64.82
78411;BME280;67706;51.074;-1.796;2023-03-04T07:43:27;102659.22;;;4.50;65.13
78411;BME280;67706;51.074;-1.796;2023-03-04T07:45:58;102660.19;;;4.49;64.89
78411;BME280;67706;51.074;-1.796;2023-03-04T07:48:26;102655.94;;;4.57;64.90
78411;BME280;67706;51.074;-1.796;2023-03-04T07:51:07;102655.59;;;4.62;63.73
78411;BME280;67706;51.074;-1.796;2023-03-04T07:53:34;102654.22;;;4.56;64.16
78411;BME280;67706;51.074;-1.796;2023-03-04T07:56:01;102656.81;;;4.58;63.84
78411;BME280;67706;51.074;-1.796;2023-03-04T07:58:28;102661.91;;;4.62;62.88
78411;BME280;67706;51.074;-1.796;2023-03-04T08:00:55;102656.13;;;4.67;62.61
78411;BME280;67706;51.074;-1.796;2023-03-04T08:03:22;102658.25;;;4.74;62.41
78411;BME280;67706;51.074;-1.796;2023-03-04T08:05:49;102655.00;;;4.69;62.30
78411;BME280;67706;51.074;-1.796;2023-03-04T08:08:17;102656.28;;;4.76;62.94
78411;BME280;67706;51.074;-1.796;2023-03-04T08:10:44;102656.75;;;4.70;63.45
78411;BME280;67706;51.074;-1.796;2023-03-04T08:13:11;102656.75;;;4.70;63.68
78411;BME280;67706;51.074;-1.796;2023-03-04T08:15:42;102664.56;;;4.75;64.03
78411;BME280;67706;51.074;-1.796;2023-03-04T08:18:08;102668.38;;;4.72;63.90
78411;BME280;67706;51.074;-1.796;2023-03-04T08:20:35;102670.63;;;4.78;63.70
78411;BME280;67706;51.074;-1.796;2023-03-04T08:23:02;102665.66;;;4.72;63.90
78411;BME280;67706;51.074;-1.796;2023-03-04T08:25:33;102672.47;;;4.78;63.25
78411;BME280;67706;51.074;-1.796;2023-03-04T08:27:59;102677.34;;;4.86;62.11
78411;BME280;67706;51.074;-1.796;2023-03-04T08:30:26;102672.13;;;4.82;62.64
78411;BME280;67706;51.074;-1.796;2023-03-04T08:32:53;102675.84;;;4.81;62.94
78411;BME280;67706;51.074;-1.796;2023-03-04T08:35:19;102675.09;;;4.79;63.02
78411;BME280;67706;51.074;-1.796;2023-03-04T08:37:46;102677.06;;;4.77;63.37
78411;BME280;67706;51.074;-1.796;2023-03-04T08:40:13;102673.06;;;4.70;63.34
78411;BME280;67706;51.074;-1.796;2023-03-04T08:42:41;102675.03;;;4.68;62.71
78411;BME280;67706;51.074;-1.796;2023-03-04T08:45:09;102672.72;;;4.75;62.34
78411;BME280;67706;51.074;-1.796;2023-03-04T08:47:36;102674.44;;;4.76;62.54
78411;BME280;67706;51.074;-1.796;2023-03-04T08:50:04;102674.56;;;4.74;62.85
78411;BME280;67706;51.074;-1.796;2023-03-04T08:52:32;102677.63;;;4.70;63.21
78411;BME280;67706;51.074;-1.796;2023-03-04T08:54:58;102679.88;;;4.76;63.36
78411;BME280;67706;51.074;-1.796;2023-03-04T08:57:25;102685.97;;;4.79;62.97
78411;BME280;67706;51.074;-1.796;2023-03-04T08:59:53;102683.88;;;4.83;63.20
78411;BME280;67706;51.074;-1.796;2023-03-04T09:02:20;102689.59;;;4.91;62.14
78411;BME280;67706;51.074;-1.796;2023-03-04T09:04:47;102688.69;;;4.79;61.93
78411;BME280;67706;51.074;-1.796;2023-03-04T09:07:14;102680.56;;;4.91;61.59
78411;BME280;67706;51.074;-1.796;2023-03-04T09:09:41;102687.09;;;4.88;61.40
78411;BME280;67706;51.074;-1.796;2023-03-04T09:12:07;102688.03;;;4.76;61.94
78411;BME280;67706;51.074;-1.796;2023-03-04T09:14:34;102687.41;;;4.72;61.96
78411;BME280;67706;51.074;-1.796;2023-03-04T09:17:03;102691.03;;;4.84;61.34
78411;BME280;67706;51.074;-1.796;2023-03-04T09:19:30;102693.41;;;4.89;61.12
78411;BME280;67706;51.074;-1.796;2023-03-04T09:21:57;102691.78;;;4.86;60.71
78411;BME280;67706;51.074;-1.796;2023-03-04T09:24:24;102697.97;;;4.88;61.05
78411;BME280;67706;51.074;-1.796;2023-03-04T09:26:51;102697.63;;;4.93;60.83
78411;BME280;67706;51.074;-1.796;2023-03-04T09:29:20;102698.84;;;4.89;61.30
78411;BME280;67706;51.074;-1.796;2023-03-04T09:31:47;102694.28;;;4.89;61.33
78411;BME280;67706;51.074;-1.796;2023-03-04T09:34:15;102692.72;;;4.98;61.15
78411;BME280;67706;51.074;-1.796;2023-03-04T09:36:41;102698.31;;;5.07;61.13
78411;BME280;67706;51.074;-1.796;2023-03-04T09:39:08;102703.00;;;5.05;60.89
78411;BME280;67706;51.074;-1.796;2023-03-04T09:41:38;102697.63;;;4.93;60.96
78411;BME280;67706;51.074;-1.796;2023-03-04T09:44:13;102687.09;;;4.88;61.28
78411;BME280;67706;51.074;-1.796;2023-03-04T09:46:42;102693.69;;;4.97;61.08
78411;BME280;67706;51.074;-1.796;2023-03-04T09:49:10;102691.84;;;4.97;60.91
78411;BME280;67706;51.074;-1.796;2023-03-04T09:51:47;102691.72;;;4.99;61.20
78411;BME280;67706;51.074;-1.796;2023-03-04T09:54:24;102690.00;;;4.98;60.54
78411;BME280;67706;51.074;-1.796;2023-03-04T09:56:56;102691.91;;;4.84;61.27
78411;BME280;67706;51.074;-1.796;2023-03-04T09:59:29;102693.66;;;4.86;61.37
78411;BME280;67706;51.074;-1.796;2023-03-04T10:01:58;102694.16;;;4.91;61.43
78411;BME280;67706;51.074;-1.796;2023-03-04T10:04:31;102686.66;;;4.94;61.33
78411;BME280;67706;51.074;-1.796;2023-03-04T10:07:01;102683.13;;;5.05;61.14
78411;BME280;67706;51.074;-1.796;2023-03-04T10:09:31;102690.06;;;5.09;61.20
78411;BME280;67706;51.074;-1.796;2023-03-04T10:12:05;102681.50;;;5.13;61.19
78411;BME280;67706;51.074;-1.796;2023-03-04T10:14:36;102687.84;;;5.14;60.69
78411;BME280;67706;51.074;-1.796;2023-03-04T10:17:08;102688.91;;;5.00;61.10
78411;BME280;67706;51.074;-1.796;2023-03-04T10:19:50;102696.13;;;5.12;60.30
78411;BME280;67706;51.074;-1.796;2023-03-04T10:22:25;102687.84;;;5.14;60.29
78411;BME280;67706;51.074;-1.796;2023-03-04T10:24:55;102695.25;;;5.12;60.20
78411;BME280;67706;51.074;-1.796;2023-03-04T10:27:22;102680.19;;;5.19;60.70
78411;BME280;67706;51.074;-1.796;2023-03-04T10:29:49;102683.53;;;5.22;60.52
78411;BME280;67706;51.074;-1.796;2023-03-04T10:32:17;102686.34;;;5.10;60.85
78411;BME280;67706;51.074;-1.796;2023-03-04T10:34:44;102681.59;;;5.01;61.47
78411;BME280;67706;51.074;-1.796;2023-03-04T10:37:11;102679.41;;;5.06;61.06
78411;BME280;67706;51.074;-1.796;2023-03-04T10:39:40;102678.78;;;5.02;61.13
78411;BME280;67706;51.074;-1.796;2023-03-04T10:42:24;102677.19;;;5.11;61.64
78411;BME280;67706;51.074;-1.796;2023-03-04T10:44:54;102666.34;;;5.22;61.21
78411;BME280;67706;51.074;-1.796;2023-03-04T10:47:22;102679.19;;;5.20;60.89
78411;BME280;67706;51.074;-1.796;2023-03-04T10:49:51;102677.00;;;5.25;60.58
78411;BME280;67706;51.074;-1.796;2023-03-04T10:52:25;102676.25;;;5.23;60.14
78411;BME280;67706;51.074;-1.796;2023-03-04T10:54:55;102667.22;;;5.22;60.19
78411;BME280;67706;51.074;-1.796;2023-03-04T10:57:27;102669.34;;;5.30;60.50
78411;BME280;67706;51.074;-1.796;2023-03-04T10:59:58;102669.22;;;5.31;60.26
78411;BME280;67706;51.074;-1.796;2023-03-04T11:02:27;102667.59;;;5.29;60.60
78411;BME280;67706;51.074;-1.796;2023-03-04T11:05:04;102656.00;;;5.38;60.63
78411;BME280;67706;51.074;-1.796;2023-03-04T11:07:31;102663.66;;;5.33;60.70
78411;BME280;67706;51.074;-1.796;2023-03-04T11:10:09;102657.88;;;5.37;60.42
78411;BME280;67706;51.074;-1.796;2023-03-04T11:12:36;102659.22;;;5.32;60.74
78411;BME280;67706;51.074;-1.796;2023-03-04T11:15:16;102660.44;;;5.39;60.67
78411;BME280;67706;51.074;-1.796;2023-03-04T11:17:46;102647.47;;;5.31;60.19
78411;BME280;67706;51.074;-1.796;2023-03-04T11:20:17;102658.47;;;5.41;59.93
78411;BME280;67706;51.074;-1.796;2023-03-04T11:22:51;102649.66;;;5.26;60.41
78411;BME280;67706;51.074;-1.796;2023-03-04T11:25:24;102645.47;;;5.33;60.16
78411;BME280;67706;51.074;-1.796;2023-03-04T11:27:52;102655.50;;;5.33;59.97
78411;BME280;67706;51.074;-1.796;2023-03-04T11:30:28;102648.06;;;5.35;59.73
78411;BME280;67706;51.074;-1.796;2023-03-04T11:33:07;102648.34;;;5.32;59.91
78411;BME280;67706;51.074;-1.796;2023-03-04T11:35:41;102642.16;;;5.41;59.90
78411;BME280;67706;51.074;-1.796;2023-03-04T11:38:16;102640.59;;;5.60;59.78
78411;BME280;67706;51.074;-1.796;2023-03-04T11:40:49;102623.75;;;5.55;59.14
78411;BME280;67706;51.074;-1.796;2023-03-04T11:43:20;102633.28;;;5.61;59.63
78411;BME280;67706;51.074;-1.796;2023-03-04T11:46:04;102635.38;;;5.69;59.14
78411;BME280;67706;51.074;-1.796;2023-03-04T11:48:44;102638.22;;;5.78;59.11
78411;BME280;67706;51.074;-1.796;2023-03-04T11:51:19;102625.25;;;5.82;58.62
78411;BME280;67706;51.074;-1.796;2023-03-04T11:54:01;102625.50;;;5.79;58.33
78411;BME280;67706;51.074;-1.796;2023-03-04T11:56:35;102622.94;;;5.88;58.19
78411;BME280;67706;51.074;-1.796;2023-03-04T11:59:28;102613.16;;;5.86;58.65
78411;BME280;67706;51.074;-1.796;2023-03-04T12:02:09;102621.06;;;5.78;58.78
78411;BME280;67706;51.074;-1.796;2023-03-04T12:07:45;102613.63;;;5.91;59.34
78411;BME280;67706;51.074;-1.796;2023-03-04T12:10:23;102605.81;;;5.64;58.94
78411;BME280;67706;51.074;-1.796;2023-03-04T12:13:08;102608.03;;;5.81;58.63
78411;BME280;67706;51.074;-1.796;2023-03-04T12:15:48;102613.28;;;5.84;58.45
78411;BME280;67706;51.074;-1.796;2023-03-04T12:18:33;102595.44;;;5.80;58.40
78411;BME280;67706;51.074;-1.796;2023-03-04T12:21:10;102600.41;;;5.86;58.42
78411;BME280;67706;51.074;-1.796;2023-03-04T12:23:54;102594.56;;;5.91;57.94
78411;BME280;67706;51.074;-1.796;2023-03-04T12:26:32;102588.78;;;5.84;58.69
78411;BME280;67706;51.074;-1.796;2023-03-04T12:29:06;102586.75;;;5.97;58.25
78411;BME280;67706;51.074;-1.796;2023-03-04T12:31:38;102577.84;;;5.95;58.16
78411;BME280;67706;51.074;-1.796;2023-03-04T12:34:28;102580.59;;;5.84;58.42
78411;BME280;67706;51.074;-1.796;2023-03-04T12:37:06;102581.69;;;5.82;57.88
78411;BME280;67706;51.074;-1.796;2023-03-04T12:39:39;102566.13;;;5.95;58.03
78411;BME280;67706;51.074;-1.796;2023-03-04T12:42:17;102572.78;;;6.02;58.02
78411;BME280;67706;51.074;-1.796;2023-03-04T12:44:55;102565.63;;;5.90;58.03
78411;BME280;67706;51.074;-1.796;2023-03-04T12:47:30;102566.97;;;5.95;57.30
78411;BME280;67706;51.074;-1.796;2023-03-04T12:50:17;102560.03;;;6.02;57.48
78411;BME280;67706;51.074;-1.796;2023-03-04T12:52:54;102550.59;;;6.06;57.51
78411;BME280;67706;51.074;-1.796;2023-03-04T12:55:31;102559.53;;;5.97;57.93
78411;BME280;67706;51.074;-1.796;2023-03-04T12:58:01;102552.81;;;6.01;58.45
78411;BME280;67706;51.074;-1.796;2023-03-04T13:00:37;102543.16;;;6.08;58.01
78411;BME280;67706;51.074;-1.796;2023-03-04T13:03:10;102547.13;;;6.15;58.36